Grand Forks AFB, North Dakota
Current Conditions -  °F | °C
As of 3:58 AM on Thursday 23 Oct 2014 (Local Time) from KRDR Reporting Station
Overcast Overcast  
Wind Chill: 51°   Ceiling: 7500
Heat Index: 51°   Visibility: 10mi
Dew Point: 50°   Wind: 9mph
Humidity: 97%   Direction: 220°SW
Pressure: 29.83"   Gusts: NA
Location:  47.96°N, 97.38°W
Report Text: KRDR 230858Z AUTO 22008KT 10SM OVC075 10/10 A2983 RMK AO2 SLP109 T01030098 55005
Loading
Personal Weather Stations






























Interactive Weather Map
Tropical Storm Tracking
New forecast layout! Learn more

10-Day Weather Forecast

Advertisements
Track Severe Weather on mobile